createdAt,value
2019-04-27T00:00:34.562Z,0
2019-04-27T00:01:48.976Z,0
2019-04-27T00:03:02.931Z,0
2019-04-27T00:04:17.267Z,0
2019-04-27T00:05:31.344Z,0
2019-04-27T00:06:45.544Z,0
2019-04-27T00:07:59.715Z,0
2019-04-27T00:09:13.939Z,0
2019-04-27T00:10:28.103Z,0
2019-04-27T00:11:42.317Z,0
2019-04-27T00:14:10.773Z,0
2019-04-27T00:15:24.912Z,0
2019-04-27T00:16:39.142Z,0
2019-04-27T00:17:53.231Z,0
2019-04-27T00:19:07.421Z,0
2019-04-27T00:20:21.612Z,0
2019-04-27T00:21:35.836Z,0
2019-04-27T00:22:50.093Z,0
2019-04-27T00:24:04.254Z,0
2019-04-27T00:25:18.387Z,0
2019-04-27T00:26:32.589Z,0
2019-04-27T00:27:46.780Z,0
2019-04-27T00:29:01.012Z,0
2019-04-27T00:30:19.631Z,0
2019-04-27T00:31:29.395Z,0
2019-04-27T00:32:43.558Z,0
2019-04-27T00:33:59.705Z,0
2019-04-27T00:35:11.967Z,0
2019-04-27T00:36:26.272Z,0
2019-04-27T00:37:40.345Z,0
2019-04-27T00:38:54.684Z,0
2019-04-27T00:40:08.732Z,0
2019-04-27T00:41:22.983Z,0
2019-04-27T00:42:37.138Z,0
2019-04-27T00:43:51.339Z,0
2019-04-27T00:45:05.552Z,0
2019-04-27T00:46:19.728Z,0
2019-04-27T00:47:33.955Z,0
2019-04-27T00:48:48.279Z,0
2019-04-27T00:51:19.186Z,0
2019-04-27T00:52:30.743Z,0
2019-04-27T00:53:44.982Z,0
2019-04-27T00:55:03.682Z,0
2019-04-27T00:56:13.459Z,0
2019-04-27T00:57:27.552Z,0
2019-04-27T00:58:41.781Z,0
2019-04-27T00:59:55.927Z,0
2019-04-27T01:01:10.171Z,0
2019-04-27T01:02:24.337Z,0
2019-04-27T01:03:38.546Z,0
2019-04-27T01:04:52.702Z,0
2019-04-27T01:06:06.959Z,0
2019-04-27T01:07:21.150Z,0
2019-04-27T01:08:35.457Z,0
2019-04-27T01:09:49.504Z,0
2019-04-27T01:11:03.890Z,0
2019-04-27T01:12:19.850Z,0
2019-04-27T01:13:32.258Z,0
2019-04-27T01:14:46.293Z,0
2019-04-27T01:16:00.522Z,0
2019-04-27T01:17:14.709Z,0
2019-04-27T01:18:28.902Z,0
2019-04-27T01:19:43.618Z,0
2019-04-27T01:20:57.334Z,0
2019-04-27T01:22:11.585Z,0
2019-04-27T01:23:25.768Z,0
2019-04-27T01:24:39.956Z,0
2019-04-27T01:25:54.646Z,0
2019-04-27T01:27:08.264Z,0
2019-04-27T01:28:22.576Z,0
2019-04-27T01:29:36.661Z,0
2019-04-27T01:30:50.870Z,0
2019-04-27T01:32:05.062Z,0
2019-04-27T01:33:19.448Z,0
2019-04-27T01:34:33.539Z,0
2019-04-27T01:35:47.672Z,0
2019-04-27T01:37:01.865Z,0
2019-04-27T01:38:16.088Z,0
2019-04-27T01:39:30.348Z,0
2019-04-27T01:40:44.464Z,0
2019-04-27T01:41:58.706Z,0
2019-04-27T01:43:12.895Z,0
2019-04-27T01:44:27.133Z,0
2019-04-27T01:45:41.290Z,0
2019-04-27T01:46:55.567Z,0
2019-04-27T01:48:09.725Z,0
2019-04-27T01:49:23.965Z,0
2019-04-27T01:50:38.236Z,0
2019-04-27T01:53:06.871Z,0
2019-04-27T01:54:20.715Z,0
2019-04-27T01:55:34.924Z,0
2019-04-27T01:56:49.155Z,0
2019-04-27T01:58:03.313Z,0
2019-04-27T01:59:17.520Z,0
2019-04-27T02:00:31.840Z,0
2019-04-27T02:01:46.020Z,0
2019-04-27T02:03:00.143Z,0
2019-04-27T02:04:14.334Z,0
2019-04-27T02:05:28.670Z,0
2019-04-27T02:06:42.868Z,0
2019-04-27T02:07:56.964Z,0
2019-04-27T02:09:11.273Z,0
2019-04-27T02:10:25.418Z,0
2019-04-27T02:11:39.599Z,0
2019-04-27T02:12:53.786Z,0
2019-04-27T02:14:08.011Z,0
2019-04-27T02:15:22.212Z,0
2019-04-27T02:16:36.589Z,0
2019-04-27T02:17:50.645Z,0
2019-04-27T02:19:04.893Z,0
2019-04-27T02:20:19.061Z,0
2019-04-27T02:21:33.274Z,0
2019-04-27T02:22:47.606Z,0
2019-04-27T02:24:01.699Z,0
2019-04-27T02:25:15.993Z,0
2019-04-27T02:26:30.120Z,0
2019-04-27T02:27:44.319Z,0
2019-04-27T02:30:12.840Z,0
2019-04-27T02:31:27.050Z,0
2019-04-27T02:32:41.175Z,0
2019-04-27T02:33:55.389Z,0
2019-04-27T02:35:09.635Z,0
2019-04-27T02:36:23.849Z,0
2019-04-27T02:38:52.267Z,0
2019-04-27T02:40:06.566Z,0
2019-04-27T02:41:20.693Z,0
2019-04-27T02:42:35.017Z,0
2019-04-27T02:43:49.233Z,0
2019-04-27T02:45:03.363Z,0
2019-04-27T02:46:17.623Z,0
2019-04-27T02:47:31.785Z,0
2019-04-27T02:48:45.973Z,0
2019-04-27T02:50:00.265Z,0
2019-04-27T02:51:14.422Z,0
2019-04-27T02:52:28.688Z,0
2019-04-27T02:53:42.868Z,0
2019-04-27T02:54:57.032Z,0
2019-04-27T02:56:11.344Z,0
2019-04-27T02:57:25.487Z,0
2019-04-27T02:58:39.761Z,0
2019-04-27T02:59:53.873Z,0
2019-04-27T03:01:08.076Z,0
2019-04-27T03:02:22.322Z,0
2019-04-27T03:03:36.520Z,0
2019-04-27T03:04:50.743Z,0
2019-04-27T03:07:19.153Z,0
2019-04-27T03:08:33.428Z,0
2019-04-27T03:09:47.583Z,0
2019-04-27T03:11:01.818Z,0
2019-04-27T03:12:16.034Z,0
2019-04-27T03:13:30.192Z,0
2019-04-27T03:14:44.499Z,0
2019-04-27T03:15:58.627Z,0
2019-04-27T03:17:12.820Z,0
2019-04-27T03:18:27.022Z,0
2019-04-27T03:19:41.211Z,0
2019-04-27T03:20:55.455Z,0
2019-04-27T03:22:09.676Z,0
2019-04-27T03:23:23.901Z,0
2019-04-27T03:24:38.092Z,0
2019-04-27T03:25:58.445Z,0
2019-04-27T03:27:06.484Z,0
2019-04-27T03:28:20.700Z,0
2019-04-27T03:29:34.945Z,0
2019-04-27T03:30:49.198Z,0
2019-04-27T03:32:03.327Z,0
2019-04-27T03:33:17.524Z,0
2019-04-27T03:34:32.129Z,4
2019-04-27T03:35:45.903Z,4
2019-04-27T03:37:00.120Z,4
2019-04-27T03:38:14.318Z,4
2019-04-27T03:39:28.594Z,8
2019-04-27T03:40:42.746Z,8
2019-04-27T03:41:56.964Z,12
2019-04-27T03:43:11.164Z,12
2019-04-27T03:44:25.371Z,12
2019-04-27T03:45:39.608Z,16
2019-04-27T03:46:53.794Z,20
2019-04-27T03:48:08.073Z,20
2019-04-27T03:49:22.189Z,28
2019-04-27T03:50:36.659Z,32
2019-04-27T03:51:50.661Z,44
2019-04-27T03:53:04.846Z,52
2019-04-27T03:54:19.042Z,60
2019-04-27T03:55:33.205Z,72
2019-04-27T03:56:47.533Z,84
2019-04-27T03:58:01.611Z,96
2019-04-27T03:59:15.836Z,116
2019-04-27T04:00:30.055Z,136
2019-04-27T04:01:44.338Z,152
2019-04-27T04:02:58.617Z,176
2019-04-27T04:04:12.665Z,204
2019-04-27T04:05:27.015Z,244
2019-04-27T04:06:41.128Z,284
2019-04-27T04:07:55.437Z,336
2019-04-27T04:09:09.576Z,376
2019-04-27T04:10:23.730Z,424
2019-04-27T04:11:37.972Z,480
2019-04-27T04:12:52.155Z,540
2019-04-27T04:14:06.374Z,616
2019-04-27T04:15:20.572Z,704
2019-04-27T04:16:34.749Z,780
2019-04-27T04:17:48.969Z,848
2019-04-27T04:19:03.249Z,940
2019-04-27T04:20:17.465Z,1016
2019-04-27T04:21:31.577Z,1100
2019-04-27T04:22:45.769Z,1188
2019-04-27T04:23:59.988Z,1272
2019-04-27T04:25:14.191Z,1396
2019-04-27T04:26:29.872Z,1504
2019-04-27T04:27:42.728Z,1580
2019-04-27T04:28:56.955Z,1680
2019-04-27T04:30:11.191Z,1768
2019-04-27T04:31:25.359Z,1848
2019-04-27T04:33:53.618Z,2064
2019-04-27T04:35:08.103Z,2200
2019-04-27T04:36:22.017Z,2324
2019-04-27T04:37:36.230Z,2428
2019-04-27T04:38:50.610Z,2492
2019-04-27T04:40:04.600Z,2560
2019-04-27T04:41:18.822Z,2648
2019-04-27T04:42:33.003Z,2760
2019-04-27T04:43:47.185Z,2860
2019-04-27T04:45:01.424Z,2924
2019-04-27T04:46:15.667Z,2960
2019-04-27T04:47:29.855Z,3048
2019-04-27T04:48:43.957Z,3156
2019-04-27T04:49:58.708Z,3240
2019-04-27T04:51:12.357Z,3344
2019-04-27T04:52:26.667Z,3504
2019-04-27T04:53:44.168Z,3640
2019-04-27T04:54:54.972Z,3876
2019-04-27T04:56:09.265Z,4144
2019-04-27T04:57:23.489Z,4316
2019-04-27T04:58:37.444Z,4464
2019-04-27T04:59:51.672Z,4584
2019-04-27T05:01:05.900Z,4780
2019-04-27T05:02:20.011Z,5012
2019-04-27T05:03:34.225Z,5228
2019-04-27T05:04:48.405Z,5448
2019-04-27T05:06:02.545Z,5776
2019-04-27T05:07:16.721Z,6224
2019-04-27T05:08:30.994Z,6520
2019-04-27T05:09:45.104Z,6732
2019-04-27T05:11:05.301Z,6808
2019-04-27T05:12:13.434Z,6908
2019-04-27T05:13:27.596Z,7052
2019-04-27T05:14:44.033Z,7268
2019-04-27T05:17:10.093Z,7388
2019-04-27T05:18:24.281Z,7520
2019-04-27T05:19:38.468Z,7648
2019-04-27T05:20:52.581Z,7720
2019-04-27T05:22:06.847Z,7604
2019-04-27T05:23:20.909Z,7516
2019-04-27T05:24:35.112Z,7556
2019-04-27T05:25:49.284Z,7628
2019-04-27T05:27:03.418Z,7616
2019-04-27T05:28:17.717Z,7604
2019-04-27T05:29:31.656Z,7660
2019-04-27T05:30:45.868Z,7668
2019-04-27T05:31:59.963Z,7620
2019-04-27T05:33:14.075Z,7904
2019-04-27T05:34:28.227Z,8028
2019-04-27T05:35:42.353Z,8080
2019-04-27T05:36:56.485Z,8212
2019-04-27T05:38:10.643Z,8344
2019-04-27T05:39:24.993Z,8428
2019-04-27T05:40:38.925Z,8500
2019-04-27T05:41:53.059Z,8524
2019-04-27T05:43:07.281Z,8664
2019-04-27T05:44:21.409Z,8716
2019-04-27T05:45:35.453Z,8796
2019-04-27T05:46:49.624Z,8812
2019-04-27T05:48:03.803Z,8156
2019-04-27T05:49:17.903Z,7816
2019-04-27T05:50:32.093Z,8308
2019-04-27T05:51:46.136Z,9148
2019-04-27T05:53:00.254Z,9428
2019-04-27T05:54:14.371Z,10400
2019-04-27T05:55:28.829Z,10444
2019-04-27T05:56:42.727Z,9816
2019-04-27T05:57:56.754Z,9500
2019-04-27T05:59:10.871Z,9644
2019-04-27T06:00:25.084Z,9008
2019-04-27T06:01:39.201Z,9252
2019-04-27T06:02:53.276Z,9288
2019-04-27T06:04:07.380Z,9624
2019-04-27T06:05:21.531Z,10456
2019-04-27T06:06:35.656Z,11140
2019-04-27T06:07:49.781Z,12324
2019-04-27T06:09:03.874Z,13548
2019-04-27T06:10:18.042Z,14008
2019-04-27T06:11:32.148Z,14344
2019-04-27T06:12:46.363Z,14836
2019-04-27T06:14:00.472Z,15440
2019-04-27T06:15:19.990Z,15632
2019-04-27T06:16:28.658Z,15556
2019-04-27T06:17:42.823Z,15864
2019-04-27T06:18:56.992Z,16672
2019-04-27T06:20:10.980Z,16704
2019-04-27T06:21:25.091Z,16736
2019-04-27T06:22:39.208Z,17792
2019-04-27T06:23:53.311Z,18912
2019-04-27T06:25:07.465Z,19168
2019-04-27T06:26:21.729Z,18752
2019-04-27T06:27:35.612Z,18304
2019-04-27T06:30:03.869Z,16384
2019-04-27T06:31:17.952Z,15448
2019-04-27T06:32:32.099Z,15472
2019-04-27T06:33:46.181Z,14684
2019-04-27T06:35:00.340Z,14500
2019-04-27T06:36:14.330Z,15060
2019-04-27T06:37:28.465Z,15684
2019-04-27T06:38:42.556Z,16576
2019-04-27T06:39:56.673Z,17088
2019-04-27T06:41:10.824Z,17280
2019-04-27T06:42:25.091Z,17536
2019-04-27T06:43:39.028Z,17984
2019-04-27T06:44:53.146Z,19488
2019-04-27T06:46:07.251Z,20032
2019-04-27T06:47:21.467Z,21216
2019-04-27T06:48:35.491Z,22240
2019-04-27T06:49:50.065Z,22944
2019-04-27T06:51:04.225Z,23360
2019-04-27T06:52:17.872Z,23328
2019-04-27T06:53:32.120Z,22880
2019-04-27T06:54:46.148Z,20768
2019-04-27T06:56:00.248Z,18592
2019-04-27T06:57:14.341Z,16992
2019-04-27T06:58:28.470Z,15848
2019-04-27T06:59:42.583Z,15204
2019-04-27T07:00:56.704Z,14228
2019-04-27T07:02:11.579Z,13316
2019-04-27T07:03:25.007Z,12572
2019-04-27T07:04:39.110Z,12076
2019-04-27T07:05:53.222Z,11808
2019-04-27T07:07:07.602Z,11820
2019-04-27T07:08:21.731Z,12152
2019-04-27T07:09:35.598Z,12748
2019-04-27T07:10:49.680Z,13456
2019-04-27T07:12:03.820Z,14196
2019-04-27T07:13:18.054Z,14920
2019-04-27T07:14:32.131Z,15612
2019-04-27T07:15:46.279Z,16208
2019-04-27T07:17:00.341Z,16640
2019-04-27T07:19:28.601Z,17248
2019-04-27T07:20:42.695Z,16836
2019-04-27T07:21:56.820Z,16356
2019-04-27T07:23:11.041Z,15728
2019-04-27T07:24:25.089Z,15148
2019-04-27T07:25:39.411Z,14904
2019-04-27T07:28:08.828Z,15044
2019-04-27T07:29:21.676Z,15228
2019-04-27T07:30:35.760Z,15392
2019-04-27T07:31:49.861Z,15628
2019-04-27T07:33:03.990Z,16012
2019-04-27T07:34:18.145Z,16352
2019-04-27T07:35:32.279Z,16188
2019-04-27T07:36:46.381Z,15532
2019-04-27T07:38:00.554Z,14972
2019-04-27T07:39:14.638Z,14756
2019-04-27T07:40:28.955Z,14696
2019-04-27T07:41:43.026Z,14612
2019-04-27T07:42:57.049Z,14332
2019-04-27T07:44:11.193Z,14216
2019-04-27T07:45:25.323Z,14392
2019-04-27T07:46:39.560Z,14628
2019-04-27T07:47:53.616Z,14460
2019-04-27T07:49:07.825Z,14128
2019-04-27T07:50:21.854Z,14244
2019-04-27T07:51:36.689Z,14472
2019-04-27T07:52:50.229Z,13936
2019-04-27T07:54:04.296Z,12452
2019-04-27T07:55:18.421Z,10616
2019-04-27T07:56:32.606Z,8700
2019-04-27T07:57:46.745Z,7416
2019-04-27T07:59:00.823Z,7352
2019-04-27T08:00:14.947Z,7196
2019-04-27T08:01:29.107Z,6740
2019-04-27T08:02:43.215Z,6696
2019-04-27T08:03:57.396Z,6460
2019-04-27T08:05:11.499Z,5924
2019-04-27T08:06:25.678Z,5864
2019-04-27T08:07:39.792Z,6600
2019-04-27T08:08:53.927Z,7876
2019-04-27T08:10:08.075Z,8376
2019-04-27T08:11:22.340Z,8600
2019-04-27T08:12:36.377Z,8820
2019-04-27T08:13:50.619Z,8360
2019-04-27T08:15:04.798Z,6836
2019-04-27T08:16:18.921Z,6532
2019-04-27T08:17:32.946Z,7912
2019-04-27T08:18:47.165Z,9988
2019-04-27T08:20:01.214Z,10852
2019-04-27T08:21:15.447Z,10776
2019-04-27T08:22:29.529Z,10720
2019-04-27T08:23:43.664Z,10656
2019-04-27T08:24:57.877Z,9460
2019-04-27T08:27:26.139Z,9464
2019-04-27T08:28:44.193Z,8448
2019-04-27T08:29:57.915Z,7740
2019-04-27T08:31:08.579Z,6484
2019-04-27T08:32:23.013Z,6816
2019-04-27T08:33:39.101Z,5900
2019-04-27T08:34:51.043Z,6752
2019-04-27T08:36:05.294Z,7332
2019-04-27T08:37:19.352Z,7632
2019-04-27T08:38:33.537Z,8364
2019-04-27T08:39:49.358Z,10308
2019-04-27T08:41:01.826Z,12468
2019-04-27T08:42:15.982Z,14444
2019-04-27T08:43:30.131Z,15796
2019-04-27T08:44:44.288Z,16008
2019-04-27T08:45:58.431Z,15944
2019-04-27T08:47:12.579Z,16800
2019-04-27T08:48:26.875Z,18400
2019-04-27T08:49:40.855Z,18528
2019-04-27T08:50:55.015Z,17696
2019-04-27T08:52:09.224Z,17124
2019-04-27T08:53:23.247Z,17408
2019-04-27T08:54:37.412Z,17760
2019-04-27T08:55:51.710Z,16720
2019-04-27T08:57:05.677Z,15368
2019-04-27T08:58:19.813Z,14604
2019-04-27T08:59:33.948Z,14420
2019-04-27T09:00:48.199Z,13816
2019-04-27T09:02:02.257Z,14008
2019-04-27T09:03:16.471Z,15456
2019-04-27T09:04:30.573Z,17312
2019-04-27T09:05:44.669Z,17760
2019-04-27T09:06:58.935Z,17952
2019-04-27T09:08:12.953Z,17664
2019-04-27T09:09:27.187Z,16812
2019-04-27T09:10:41.266Z,16552
2019-04-27T09:11:55.395Z,16512
2019-04-27T09:13:09.577Z,16492
2019-04-27T09:14:23.686Z,16028
2019-04-27T09:15:37.891Z,16296
2019-04-27T09:16:52.009Z,17664
2019-04-27T09:18:06.207Z,19200
2019-04-27T09:19:20.437Z,20544
2019-04-27T09:20:34.399Z,21312
2019-04-27T09:21:48.637Z,21696
2019-04-27T09:23:02.646Z,21664
2019-04-27T09:24:16.858Z,22208
2019-04-27T09:25:31.043Z,22912
2019-04-27T09:26:45.185Z,23200
2019-04-27T09:27:59.292Z,23904
2019-04-27T09:29:13.322Z,25248
2019-04-27T09:30:27.509Z,25504
2019-04-27T09:31:41.623Z,26400
2019-04-27T09:32:55.773Z,27488
2019-04-27T09:34:09.921Z,28768
2019-04-27T09:35:24.007Z,29472
2019-04-27T09:36:38.149Z,29408
2019-04-27T09:37:52.290Z,28032
2019-04-27T09:39:06.447Z,27328
2019-04-27T09:40:20.561Z,28672
2019-04-27T09:41:34.721Z,30304
2019-04-27T09:42:48.812Z,30432
2019-04-27T09:44:02.922Z,32608
2019-04-27T09:45:17.035Z,31200
2019-04-27T09:46:31.183Z,28416
2019-04-27T09:47:45.369Z,28352
2019-04-27T09:48:59.503Z,27200
2019-04-27T09:50:13.685Z,27616
2019-04-27T09:51:27.668Z,34880
2019-04-27T09:52:41.842Z,32384
2019-04-27T09:55:10.093Z,22240
2019-04-27T09:56:25.541Z,22336
2019-04-27T09:57:38.314Z,23360
2019-04-27T09:58:52.465Z,22656
2019-04-27T10:00:06.710Z,20640
2019-04-27T10:01:20.731Z,17536
2019-04-27T10:02:34.900Z,21856
2019-04-27T10:03:48.978Z,21952
2019-04-27T10:05:03.089Z,19488
2019-04-27T10:06:17.197Z,12360
2019-04-27T10:07:31.453Z,14856
2019-04-27T10:08:45.480Z,21536
2019-04-27T10:09:59.638Z,19328
2019-04-27T10:11:13.872Z,20480
2019-04-27T10:12:27.925Z,14976
2019-04-27T10:13:42.080Z,15108
2019-04-27T10:14:56.197Z,19648
2019-04-27T10:16:10.362Z,15964
2019-04-27T10:17:24.494Z,18112
2019-04-27T10:18:38.665Z,13732
2019-04-27T10:19:52.811Z,18560
2019-04-27T10:21:06.979Z,22528
2019-04-27T10:22:21.088Z,21920
2019-04-27T10:23:35.393Z,22048
2019-04-27T10:24:49.357Z,24416
2019-04-27T10:26:03.588Z,25600
2019-04-27T10:27:18.066Z,25792
2019-04-27T10:28:31.788Z,24992
2019-04-27T10:29:45.952Z,23264
2019-04-27T10:31:00.102Z,23648
2019-04-27T10:32:14.210Z,27264
2019-04-27T10:33:28.422Z,25600
2019-04-27T10:34:42.472Z,24544
2019-04-27T10:35:56.637Z,25568
2019-04-27T10:37:10.751Z,24192
2019-04-27T10:38:24.905Z,24256
2019-04-27T10:39:39.052Z,29824
2019-04-27T10:40:53.441Z,29824
2019-04-27T10:42:07.418Z,27424
2019-04-27T10:43:21.528Z,24512
2019-04-27T10:44:35.670Z,20832
2019-04-27T10:45:49.753Z,18368
2019-04-27T10:47:03.970Z,19808
2019-04-27T10:48:18.031Z,23456
2019-04-27T10:49:32.175Z,31360
2019-04-27T10:50:46.326Z,35808
2019-04-27T10:52:00.473Z,38016
2019-04-27T10:53:14.736Z,30624
2019-04-27T10:54:28.775Z,21056
2019-04-27T10:55:42.884Z,19456
2019-04-27T10:56:56.994Z,22400
2019-04-27T10:58:11.214Z,14928
2019-04-27T10:59:25.248Z,13552
2019-04-27T11:00:39.520Z,12972
2019-04-27T11:01:54.053Z,11888
2019-04-27T11:03:07.680Z,13112
2019-04-27T11:04:22.198Z,11448
2019-04-27T11:05:35.951Z,9792
2019-04-27T11:06:50.090Z,10304
2019-04-27T11:08:04.350Z,12432
2019-04-27T11:09:18.542Z,17168
2019-04-27T11:10:32.861Z,20576
2019-04-27T11:11:46.681Z,18112
2019-04-27T11:14:15.081Z,8516
2019-04-27T11:15:29.119Z,4308
2019-04-27T11:16:43.280Z,4232
2019-04-27T11:17:57.419Z,8484
2019-04-27T11:19:11.650Z,10488
2019-04-27T11:20:25.814Z,11584
2019-04-27T11:21:39.878Z,12932
2019-04-27T11:22:54.095Z,15428
2019-04-27T11:24:08.176Z,15944
2019-04-27T11:25:22.467Z,14740
2019-04-27T11:26:36.550Z,13164
2019-04-27T11:27:50.689Z,12744
2019-04-27T11:29:04.815Z,13648
2019-04-27T11:30:18.926Z,14940
2019-04-27T11:31:33.234Z,15896
2019-04-27T11:32:49.648Z,17152
2019-04-27T11:34:03.347Z,19360
2019-04-27T11:35:15.552Z,23296
2019-04-27T11:36:29.798Z,26880
2019-04-27T11:37:43.916Z,27232
2019-04-27T11:38:58.096Z,27264
2019-04-27T11:40:12.180Z,28032
2019-04-27T11:41:26.320Z,26272
2019-04-27T11:42:41.289Z,23616
2019-04-27T11:43:54.670Z,22816
2019-04-27T11:45:08.742Z,24704
2019-04-27T11:46:22.913Z,28384
2019-04-27T11:47:37.023Z,31296
2019-04-27T11:48:51.152Z,29152
2019-04-27T11:50:05.382Z,24192
2019-04-27T11:51:19.434Z,20448
2019-04-27T11:52:33.570Z,18720
2019-04-27T11:53:47.724Z,18688
2019-04-27T11:55:01.881Z,19232
2019-04-27T11:57:30.223Z,19040
2019-04-27T11:58:44.406Z,17632
2019-04-27T11:59:58.468Z,16408
2019-04-27T12:01:12.640Z,13576
2019-04-27T12:02:26.779Z,9388
2019-04-27T12:03:41.111Z,4756
2019-04-27T12:04:55.108Z,3248
2019-04-27T12:06:09.234Z,4692
2019-04-27T12:07:23.396Z,8580
2019-04-27T12:08:37.657Z,10848
2019-04-27T12:09:51.764Z,13068
2019-04-27T12:11:05.894Z,15888
2019-04-27T12:12:20.089Z,17632
2019-04-27T12:13:34.655Z,18912
2019-04-27T12:14:48.358Z,20960
2019-04-27T12:16:02.639Z,21664
2019-04-27T12:17:16.669Z,23744
2019-04-27T12:18:30.878Z,25600
2019-04-27T12:19:45.016Z,28608
2019-04-27T12:20:59.241Z,30144
2019-04-27T12:22:13.484Z,28960
2019-04-27T12:23:27.482Z,29280
2019-04-27T12:24:41.619Z,31872
2019-04-27T12:25:55.860Z,34496
2019-04-27T12:27:10.005Z,34560
2019-04-27T12:28:24.074Z,30816
2019-04-27T12:29:38.257Z,24096
2019-04-27T12:30:52.414Z,19936
2019-04-27T12:32:06.623Z,17824
2019-04-27T12:34:35.153Z,17184
2019-04-27T12:35:48.981Z,17312
2019-04-27T12:37:03.191Z,17888
2019-04-27T12:38:19.483Z,18656
2019-04-27T12:39:31.424Z,19264
2019-04-27T12:40:45.610Z,19680
2019-04-27T12:41:59.862Z,19904
2019-04-27T12:43:13.995Z,19776
2019-04-27T12:44:28.060Z,19424
2019-04-27T12:45:42.348Z,19328
2019-04-27T12:48:10.612Z,20832
2019-04-27T12:49:24.712Z,21536
2019-04-27T12:50:38.853Z,21600
2019-04-27T12:51:53.072Z,21696
2019-04-27T12:53:07.171Z,22272
2019-04-27T12:54:21.337Z,23456
2019-04-27T12:55:35.582Z,26528
2019-04-27T12:56:49.606Z,32192
2019-04-27T12:58:03.741Z,41344
2019-04-27T12:59:17.886Z,49472
2019-04-27T13:00:32.139Z,44800
2019-04-27T13:01:46.168Z,39552
2019-04-27T13:03:04.529Z,39680
2019-04-27T13:04:14.442Z,59680
2019-04-27T13:05:28.578Z,41440
2019-04-27T13:06:42.739Z,35680
2019-04-27T13:07:56.831Z,31936
2019-04-27T13:09:10.996Z,28800
2019-04-27T13:10:25.089Z,25344
2019-04-27T13:11:39.226Z,22816
2019-04-27T13:12:53.364Z,20992
2019-04-27T13:14:07.514Z,19424
2019-04-27T13:15:21.643Z,18112
2019-04-27T13:16:35.778Z,17216
2019-04-27T13:17:49.912Z,16368
2019-04-27T13:19:04.110Z,15956
2019-04-27T13:20:18.373Z,15936
2019-04-27T13:21:32.386Z,16356
2019-04-27T13:22:46.532Z,16832
2019-04-27T13:25:14.817Z,17632
2019-04-27T13:26:29.032Z,18688
2019-04-27T13:27:43.854Z,19840
2019-04-27T13:28:57.275Z,20736
2019-04-27T13:30:11.375Z,21344
2019-04-27T13:31:25.508Z,21696
2019-04-27T13:32:39.723Z,22048
2019-04-27T13:33:53.883Z,22944
2019-04-27T13:35:08.047Z,24544
2019-04-27T13:36:22.064Z,26720
2019-04-27T13:37:36.448Z,29216
2019-04-27T13:38:50.400Z,32320
2019-04-27T13:40:04.480Z,35520
2019-04-27T13:41:18.722Z,37952
2019-04-27T13:42:32.752Z,40160
2019-04-27T13:43:46.895Z,41792
2019-04-27T13:45:01.056Z,44416
2019-04-27T13:46:20.377Z,45536
2019-04-27T13:47:29.304Z,47552
2019-04-27T13:48:43.564Z,45152
2019-04-27T13:49:57.566Z,43168
2019-04-27T13:51:11.678Z,42208
2019-04-27T13:52:25.810Z,42816
2019-04-27T13:53:40.095Z,43712
2019-04-27T13:54:54.238Z,37536
2019-04-27T13:56:08.568Z,34944
2019-04-27T13:57:22.284Z,35360
2019-04-27T13:58:36.476Z,39904
2019-04-27T13:59:50.633Z,48864
2019-04-27T14:01:04.694Z,48448
2019-04-27T14:02:18.840Z,51008
2019-04-27T14:03:32.942Z,59104
2019-04-27T14:04:47.096Z,61088
2019-04-27T14:06:01.119Z,54720
2019-04-27T14:07:15.319Z,47584
2019-04-27T14:08:29.321Z,43424
2019-04-27T14:09:43.435Z,41568
2019-04-27T14:10:57.559Z,42528
2019-04-27T14:12:11.669Z,36928
2019-04-27T14:13:25.787Z,35840
2019-04-27T14:14:40.331Z,40704
2019-04-27T14:15:54.009Z,37024
2019-04-27T14:17:08.114Z,33344
2019-04-27T14:18:22.250Z,29792
2019-04-27T14:19:36.365Z,30144
2019-04-27T14:20:50.494Z,31040
2019-04-27T14:22:04.651Z,29824
2019-04-27T14:23:18.683Z,28640
2019-04-27T14:24:32.777Z,26016
2019-04-27T14:25:46.960Z,25536
2019-04-27T14:27:01.020Z,30080
2019-04-27T14:28:15.150Z,31712
2019-04-27T14:29:29.292Z,32992
2019-04-27T14:30:43.422Z,34400
2019-04-27T14:31:57.526Z,38208
2019-04-27T14:33:11.620Z,37312
2019-04-27T14:34:25.742Z,39456
2019-04-27T14:35:39.861Z,38848
2019-04-27T14:36:54.007Z,36128
2019-04-27T14:38:08.202Z,38208
2019-04-27T14:39:22.201Z,27968
2019-04-27T14:40:36.338Z,24896
2019-04-27T14:41:50.477Z,26144
2019-04-27T14:43:04.609Z,31808
2019-04-27T14:44:20.380Z,34400
2019-04-27T14:45:33.420Z,33344
2019-04-27T14:46:47.026Z,35584
2019-04-27T14:48:01.062Z,33152
2019-04-27T14:49:18.686Z,30336
2019-04-27T14:50:31.898Z,28736
2019-04-27T14:51:43.397Z,30208
2019-04-27T14:52:57.507Z,32000
2019-04-27T14:54:11.798Z,34784
2019-04-27T14:55:26.024Z,39040
2019-04-27T14:56:39.851Z,46400
2019-04-27T14:57:54.045Z,59200
2019-04-27T14:59:08.081Z,59648
2019-04-27T15:00:22.212Z,67104
2019-04-27T15:01:36.475Z,61568
2019-04-27T15:02:50.637Z,48128
2019-04-27T15:04:04.582Z,75424
2019-04-27T15:05:18.651Z,72832
2019-04-27T15:06:32.792Z,55584
2019-04-27T15:07:46.876Z,42560
2019-04-27T15:09:01.289Z,85536
2019-04-27T15:10:15.101Z,76800
2019-04-27T15:11:29.221Z,34080
2019-04-27T15:12:43.277Z,38496
2019-04-27T15:13:57.400Z,52576
2019-04-27T15:15:11.477Z,27648
2019-04-27T15:16:25.677Z,28896
2019-04-27T15:17:39.839Z,31872
2019-04-27T15:18:53.775Z,90560
2019-04-27T15:20:07.922Z,97024
2019-04-27T15:21:22.032Z,88128
2019-04-27T15:22:36.088Z,92768
2019-04-27T15:23:50.285Z,77792
2019-04-27T15:25:04.304Z,80320
2019-04-27T15:26:18.529Z,77536
2019-04-27T15:27:32.612Z,68704
2019-04-27T15:28:46.578Z,44896
2019-04-27T15:30:00.632Z,32544
2019-04-27T15:31:14.741Z,23712
2019-04-27T15:32:29.012Z,20256
2019-04-27T15:33:42.937Z,15744
2019-04-27T15:34:57.042Z,12012
2019-04-27T15:36:11.153Z,9020
2019-04-27T15:37:25.236Z,7032
2019-04-27T15:38:39.416Z,5296
2019-04-27T15:39:53.482Z,3872
2019-04-27T15:41:07.611Z,2684
2019-04-27T15:42:21.736Z,2136
2019-04-27T15:43:37.521Z,1796
2019-04-27T15:46:04.147Z,956
2019-04-27T15:47:18.280Z,1048
2019-04-27T15:48:32.449Z,1432
2019-04-27T15:49:46.573Z,2204
2019-04-27T15:51:00.869Z,2816
2019-04-27T15:52:14.972Z,2540
2019-04-27T15:53:29.071Z,2120
2019-04-27T15:54:43.238Z,1972
2019-04-27T15:56:00.334Z,1948
2019-04-27T15:57:11.604Z,1992
2019-04-27T15:58:25.767Z,2184
2019-04-27T15:59:39.977Z,2452
2019-04-27T16:00:54.177Z,2692
2019-04-27T16:02:08.295Z,2764
2019-04-27T16:03:22.493Z,2876
2019-04-27T16:04:36.652Z,3048
2019-04-27T16:05:50.906Z,3072
2019-04-27T16:07:05.047Z,3080
2019-04-27T16:08:19.240Z,3040
2019-04-27T16:09:33.449Z,3056
2019-04-27T16:10:47.577Z,3120
2019-04-27T16:12:01.813Z,3240
2019-04-27T16:13:15.931Z,3364
2019-04-27T16:14:30.116Z,3504
2019-04-27T16:15:49.695Z,3608
2019-04-27T16:16:58.537Z,3616
2019-04-27T16:18:12.669Z,3476
2019-04-27T16:19:26.865Z,3360
2019-04-27T16:20:41.146Z,3356
2019-04-27T16:21:55.231Z,3380
2019-04-27T16:23:09.416Z,3436
2019-04-27T16:24:23.600Z,3572
2019-04-27T16:25:37.860Z,3776
2019-04-27T16:26:52.101Z,3904
2019-04-27T16:28:06.170Z,4016
2019-04-27T16:29:20.510Z,4264
2019-04-27T16:31:48.738Z,4800
2019-04-27T16:33:02.926Z,5072
2019-04-27T16:34:17.233Z,5356
2019-04-27T16:35:31.369Z,5640
2019-04-27T16:36:45.587Z,5964
2019-04-27T16:37:59.704Z,6328
2019-04-27T16:39:13.869Z,6780
2019-04-27T16:40:28.108Z,7240
2019-04-27T16:41:42.394Z,7608
2019-04-27T16:42:56.421Z,7820
2019-04-27T16:44:10.658Z,7840
2019-04-27T16:45:24.801Z,7820
2019-04-27T16:46:38.981Z,7688
2019-04-27T16:47:53.263Z,7424
2019-04-27T16:49:07.374Z,7260
2019-04-27T16:50:21.736Z,7204
2019-04-27T16:51:35.810Z,7160
2019-04-27T16:52:49.970Z,7084
2019-04-27T16:54:04.173Z,7164
2019-04-27T16:55:18.311Z,7076
2019-04-27T16:56:32.568Z,7108
2019-04-27T16:57:50.417Z,6992